createdAt,value
2022-08-30T00:02:02.413Z,20.24
2022-08-30T00:04:29.716Z,20.30
2022-08-30T00:06:58.444Z,20.29
2022-08-30T00:09:25.898Z,20.19
2022-08-30T00:11:53.118Z,20.19
2022-08-30T00:14:20.784Z,20.15
2022-08-30T00:16:48.020Z,20.11
2022-08-30T00:19:15.299Z,20.19
2022-08-30T00:21:42.598Z,20.21
2022-08-30T00:24:09.930Z,20.22
2022-08-30T00:26:37.254Z,20.05
2022-08-30T00:29:04.645Z,20.11
2022-08-30T00:31:32.064Z,20.18
2022-08-30T00:34:01.635Z,20.21
2022-08-30T00:36:29.021Z,20.22
2022-08-30T00:38:56.776Z,20.27
2022-08-30T00:41:24.249Z,20.29
2022-08-30T00:43:52.590Z,20.27
2022-08-30T00:46:19.725Z,20.40
2022-08-30T00:48:49.650Z,20.24
2022-08-30T00:51:17.599Z,20.40
2022-08-30T00:53:51.109Z,20.41
2022-08-30T00:56:20.030Z,20.27
2022-08-30T00:58:50.787Z,20.31
2022-08-30T01:01:19.568Z,20.29
2022-08-30T01:04:15.235Z,20.33
2022-08-30T01:06:42.436Z,20.24
2022-08-30T01:09:09.693Z,20.27
2022-08-30T01:11:38.372Z,20.08
2022-08-30T01:14:07.918Z,20.19
2022-08-30T01:16:36.349Z,20.25
2022-08-30T01:19:04.577Z,20.30
2022-08-30T01:21:48.454Z,20.51
2022-08-30T01:24:17.956Z,20.40
2022-08-30T01:26:45.679Z,20.30
2022-08-30T01:29:17.330Z,20.23
2022-08-30T01:31:44.576Z,20.38
2022-08-30T01:34:12.670Z,20.32
2022-08-30T01:36:45.013Z,20.19
2022-08-30T01:39:15.815Z,20.18
2022-08-30T01:41:43.804Z,20.21
2022-08-30T01:44:13.945Z,20.20
2022-08-30T01:46:46.314Z,20.23
2022-08-30T01:49:16.373Z,20.13
2022-08-30T01:51:44.114Z,20.09
2022-08-30T01:54:12.783Z,20.20
2022-08-30T01:56:40.558Z,20.19
2022-08-30T01:59:08.039Z,20.20
2022-08-30T02:01:37.242Z,20.17
2022-08-30T02:04:08.163Z,20.19
2022-08-30T02:06:35.524Z,20.10
2022-08-30T02:09:02.898Z,20.08
2022-08-30T02:11:30.185Z,20.08
2022-08-30T02:18:04.664Z,20.23
2022-08-30T02:20:32.109Z,20.11
2022-08-30T02:23:01.414Z,19.98
2022-08-30T02:25:28.912Z,19.96
2022-08-30T02:27:58.719Z,20.02
2022-08-30T02:30:26.082Z,19.84
2022-08-30T02:32:54.591Z,19.76
2022-08-30T02:35:23.713Z,19.85
2022-08-30T02:37:51.101Z,19.62
2022-08-30T02:40:19.109Z,19.73
2022-08-30T02:42:46.446Z,19.75
2022-08-30T02:45:15.446Z,19.78
2022-08-30T02:47:46.985Z,19.59
2022-08-30T02:50:15.545Z,19.76
2022-08-30T02:52:43.121Z,19.75
2022-08-30T02:55:19.077Z,19.76
2022-08-30T02:57:46.827Z,19.81
2022-08-30T03:00:17.375Z,19.75
2022-08-30T03:02:46.273Z,19.90
2022-08-30T03:05:15.719Z,19.84
2022-08-30T03:07:43.630Z,19.95
2022-08-30T03:10:11.596Z,19.84
2022-08-30T03:12:42.128Z,19.73
2022-08-30T03:15:15.224Z,19.79
2022-08-30T03:17:42.905Z,19.87
2022-08-30T03:20:10.860Z,19.82
2022-08-30T03:22:38.429Z,19.81
2022-08-30T03:25:06.677Z,19.86
2022-08-30T03:27:34.042Z,19.96
2022-08-30T03:30:01.301Z,19.99
2022-08-30T03:32:28.856Z,20.06
2022-08-30T03:34:56.182Z,20.13
2022-08-30T03:37:27.367Z,20.26
2022-08-30T03:39:55.227Z,20.37
2022-08-30T03:42:22.475Z,20.27
2022-08-30T03:44:52.563Z,20.38
2022-08-30T03:47:20.858Z,20.35
2022-08-30T03:49:48.102Z,20.42
2022-08-30T03:52:15.484Z,20.48
2022-08-30T03:54:43.716Z,20.52
2022-08-30T03:57:20.156Z,20.51
2022-08-30T03:59:52.007Z,20.53
2022-08-30T04:02:19.582Z,20.47
2022-08-30T04:04:47.372Z,20.44
2022-08-30T04:07:14.694Z,20.62
2022-08-30T04:09:42.077Z,20.59
2022-08-30T04:12:09.577Z,20.62
2022-08-30T04:14:37.121Z,20.64
2022-08-30T04:17:04.794Z,20.63
2022-08-30T04:19:32.022Z,20.57
2022-08-30T04:21:59.391Z,20.58
2022-08-30T04:24:28.979Z,20.51
2022-08-30T04:26:56.172Z,20.61
2022-08-30T04:29:23.451Z,20.65
2022-08-30T04:31:50.880Z,20.66
2022-08-30T04:34:18.495Z,20.79
2022-08-30T04:36:49.702Z,20.80
2022-08-30T04:39:19.198Z,20.75
2022-08-30T04:41:46.550Z,20.83
2022-08-30T04:44:19.192Z,20.88
2022-08-30T04:46:47.156Z,20.76
2022-08-30T04:49:17.067Z,20.99
2022-08-30T04:51:48.015Z,21.05
2022-08-30T04:54:15.478Z,21.09
2022-08-30T04:56:43.934Z,21.41
2022-08-30T04:59:11.498Z,21.60
2022-08-30T05:01:45.729Z,21.55
2022-08-30T05:04:15.518Z,21.82
2022-08-30T05:06:45.764Z,22.00
2022-08-30T05:09:13.230Z,21.96
2022-08-30T05:11:40.701Z,22.40
2022-08-30T05:14:11.403Z,23.17
2022-08-30T05:16:39.618Z,23.89
2022-08-30T05:19:08.313Z,24.65
2022-08-30T05:21:37.471Z,25.26
2022-08-30T05:24:06.055Z,25.84
2022-08-30T05:26:40.594Z,26.13
2022-08-30T05:29:08.049Z,26.38
2022-08-30T05:31:36.899Z,26.88
2022-08-30T05:34:05.682Z,26.75
2022-08-30T05:36:39.459Z,27.12
2022-08-30T05:39:09.324Z,27.43
2022-08-30T05:41:38.181Z,28.00
2022-08-30T05:44:08.613Z,27.96
2022-08-30T05:46:37.122Z,28.20
2022-08-30T05:49:08.824Z,28.24
2022-08-30T05:51:43.324Z,28.58
2022-08-30T05:54:14.003Z,29.03
2022-08-30T05:56:43.234Z,29.31
2022-08-30T05:59:10.274Z,29.47
2022-08-30T06:01:43.973Z,29.79
2022-08-30T06:04:13.655Z,29.81
2022-08-30T06:06:42.936Z,29.67
2022-08-30T06:09:11.785Z,30.26
2022-08-30T06:11:39.227Z,30.27
2022-08-30T06:14:07.903Z,30.61
2022-08-30T06:16:39.001Z,31.13
2022-08-30T06:19:11.253Z,31.20
2022-08-30T06:21:39.927Z,31.31
2022-08-30T06:24:09.372Z,31.20
2022-08-30T06:26:41.475Z,30.88
2022-08-30T06:29:11.817Z,30.99
2022-08-30T06:31:39.169Z,31.08
2022-08-30T06:34:07.829Z,31.59
2022-08-30T06:36:37.635Z,31.81
2022-08-30T06:39:06.155Z,31.60
2022-08-30T06:41:36.960Z,31.86
2022-08-30T06:44:10.534Z,31.53
2022-08-30T06:46:39.388Z,31.58
2022-08-30T06:49:07.975Z,31.35
2022-08-30T06:51:38.505Z,30.72
2022-08-30T06:54:10.679Z,30.20
2022-08-30T06:56:55.193Z,30.07
2022-08-30T06:59:43.769Z,29.12
2022-08-30T07:02:13.584Z,28.73
2022-08-30T07:04:41.088Z,28.42
2022-08-30T07:07:11.282Z,28.12
2022-08-30T07:09:43.386Z,28.02
2022-08-30T07:12:12.064Z,27.91
2022-08-30T07:14:41.367Z,27.90
2022-08-30T07:17:31.277Z,27.51
2022-08-30T07:20:02.291Z,27.14
2022-08-30T07:22:29.634Z,27.13
2022-08-30T07:24:56.978Z,26.93
2022-08-30T07:27:24.062Z,26.75
2022-08-30T07:29:51.470Z,26.76
2022-08-30T07:32:18.711Z,26.71
2022-08-30T07:34:45.930Z,26.83
2022-08-30T07:37:18.054Z,26.85
2022-08-30T07:39:48.024Z,27.11
2022-08-30T07:42:16.687Z,27.09
2022-08-30T07:44:44.760Z,27.50
2022-08-30T07:47:12.134Z,27.46
2022-08-30T07:49:39.329Z,27.21
2022-08-30T07:52:06.433Z,27.18
2022-08-30T07:54:33.832Z,27.79
2022-08-30T07:57:01.305Z,28.01
2022-08-30T07:59:30.851Z,28.13
2022-08-30T08:02:01.685Z,28.98
2022-08-30T08:04:30.139Z,29.65
2022-08-30T08:06:57.262Z,30.32
2022-08-30T08:09:24.416Z,30.77
2022-08-30T08:11:51.682Z,30.88
2022-08-30T08:14:18.921Z,30.98
2022-08-30T08:16:46.852Z,31.94
2022-08-30T08:19:14.187Z,32.21
2022-08-30T08:21:42.154Z,32.91
2022-08-30T08:24:09.744Z,32.17
2022-08-30T08:26:38.491Z,32.67
2022-08-30T08:29:10.180Z,32.26
2022-08-30T08:31:38.352Z,32.10
2022-08-30T08:34:06.670Z,31.57
2022-08-30T08:36:35.728Z,31.56
2022-08-30T08:39:06.202Z,32.36
2022-08-30T08:41:52.190Z,32.53
2022-08-30T08:44:34.864Z,33.20
2022-08-30T08:47:22.665Z,33.59
2022-08-30T08:49:55.503Z,34.06
2022-08-30T08:53:13.393Z,34.09
2022-08-30T08:55:51.564Z,33.79
2022-08-30T08:58:29.684Z,33.68
2022-08-30T09:00:59.224Z,34.20
2022-08-30T09:03:29.694Z,33.92
2022-08-30T09:05:59.284Z,33.86
2022-08-30T09:08:27.576Z,34.29
2022-08-30T09:11:00.680Z,34.51
2022-08-30T09:13:28.531Z,34.94
2022-08-30T09:15:59.540Z,35.04
2022-08-30T09:18:51.278Z,35.78
2022-08-30T09:21:27.622Z,36.29
2022-08-30T09:23:59.438Z,36.22
2022-08-30T09:26:36.305Z,35.83
2022-08-30T09:29:05.853Z,35.55
2022-08-30T09:31:47.693Z,35.69
2022-08-30T09:34:21.021Z,36.06
2022-08-30T09:36:54.044Z,36.67
2022-08-30T09:39:30.414Z,36.33
2022-08-30T09:42:14.915Z,36.45
2022-08-30T09:44:43.411Z,35.64
2022-08-30T09:47:24.191Z,34.73
2022-08-30T09:50:14.914Z,34.05
2022-08-30T09:53:10.130Z,32.92
2022-08-30T09:55:55.223Z,31.94
2022-08-30T09:58:36.508Z,32.20
2022-08-30T10:01:07.106Z,32.23
2022-08-30T10:03:48.951Z,32.24
2022-08-30T10:06:36.525Z,32.22
2022-08-30T10:09:28.962Z,32.03
2022-08-30T10:12:17.473Z,31.74
2022-08-30T10:15:17.517Z,31.42
2022-08-30T10:17:55.292Z,31.21
2022-08-30T10:20:43.712Z,31.39
2022-08-30T10:23:20.291Z,31.56
2022-08-30T10:26:11.970Z,31.28
2022-08-30T10:29:27.051Z,31.15
2022-08-30T10:32:01.872Z,31.34
2022-08-30T10:34:56.024Z,30.83
2022-08-30T10:37:28.907Z,30.87
2022-08-30T10:40:25.759Z,30.81
2022-08-30T10:42:56.752Z,30.96
2022-08-30T10:45:27.397Z,31.05
2022-08-30T10:47:57.725Z,31.29
2022-08-30T10:50:33.866Z,31.29
2022-08-30T10:53:32.467Z,31.10
2022-08-30T10:56:09.409Z,30.64
2022-08-30T10:58:43.552Z,30.54
2022-08-30T11:01:36.591Z,30.92
2022-08-30T11:05:00.686Z,30.86
2022-08-30T11:07:28.132Z,31.40
2022-08-30T11:10:41.179Z,31.84
2022-08-30T11:13:32.088Z,31.69
2022-08-30T11:16:15.587Z,31.61
2022-08-30T11:18:51.131Z,32.47
2022-08-30T11:21:21.863Z,32.96
2022-08-30T11:24:22.136Z,32.50
2022-08-30T11:26:49.604Z,32.93
2022-08-30T11:29:41.997Z,33.25
2022-08-30T11:32:12.607Z,33.48
2022-08-30T11:34:46.750Z,33.91
2022-08-30T11:37:46.809Z,34.00
2022-08-30T11:40:20.011Z,34.51
2022-08-30T11:42:49.781Z,34.94
2022-08-30T11:45:25.423Z,34.27
2022-08-30T11:48:04.560Z,33.47
2022-08-30T11:50:48.679Z,32.92
2022-08-30T11:53:29.648Z,32.59
2022-08-30T11:56:12.195Z,31.63
2022-08-30T11:58:52.651Z,31.27
2022-08-30T12:01:50.507Z,31.81
2022-08-30T12:04:27.980Z,32.89
2022-08-30T12:07:04.326Z,33.73
2022-08-30T12:09:33.206Z,34.28
2022-08-30T12:12:32.705Z,34.57
2022-08-30T12:15:00.556Z,34.39
2022-08-30T12:18:10.412Z,34.72
2022-08-30T12:20:47.312Z,35.42
2022-08-30T12:23:29.635Z,35.24
2022-08-30T12:26:32.055Z,35.60
2022-08-30T12:29:24.520Z,35.65
2022-08-30T12:32:05.388Z,35.70
2022-08-30T12:34:40.532Z,35.54
2022-08-30T12:37:23.419Z,35.31
2022-08-30T12:40:12.362Z,35.17
2022-08-30T12:42:43.233Z,35.37
2022-08-30T12:45:16.307Z,34.93
2022-08-30T12:48:17.751Z,35.23
2022-08-30T12:50:53.819Z,35.06
2022-08-30T12:53:34.845Z,34.94
2022-08-30T12:56:11.592Z,35.06
2022-08-30T12:58:41.809Z,34.63
2022-08-30T13:01:36.223Z,33.81
2022-08-30T13:04:22.178Z,33.27
2022-08-30T13:06:55.289Z,33.28
2022-08-30T13:09:27.562Z,33.19
2022-08-30T13:12:02.124Z,32.83
2022-08-30T13:14:42.444Z,33.00
2022-08-30T13:17:20.381Z,32.50
2022-08-30T13:20:06.109Z,32.02
2022-08-30T13:22:42.309Z,31.40
2022-08-30T13:25:11.756Z,30.98
2022-08-30T13:27:40.266Z,30.67
2022-08-30T13:30:13.538Z,30.24
2022-08-30T13:32:42.738Z,29.77
2022-08-30T13:35:12.104Z,29.63
2022-08-30T13:37:49.583Z,29.67
2022-08-30T13:40:20.815Z,29.81
2022-08-30T13:42:48.725Z,29.96
2022-08-30T13:48:10.504Z,30.60
2022-08-30T13:50:38.473Z,31.39
2022-08-30T13:53:06.011Z,32.32
2022-08-30T13:55:36.549Z,33.20
2022-08-30T13:58:03.690Z,33.18
2022-08-30T14:00:36.244Z,33.27
2022-08-30T14:03:05.380Z,33.47
2022-08-30T14:06:05.240Z,33.43
2022-08-30T14:11:18.710Z,33.19
2022-08-30T14:16:40.196Z,32.87
2022-08-30T14:19:09.684Z,32.91
2022-08-30T14:21:36.777Z,32.76
2022-08-30T14:24:06.652Z,32.44
2022-08-30T14:26:40.438Z,31.98
2022-08-30T14:29:10.898Z,31.44
2022-08-30T14:31:39.547Z,30.84
2022-08-30T14:34:08.498Z,30.16
2022-08-30T14:36:37.453Z,29.82
2022-08-30T14:39:08.775Z,29.47
2022-08-30T14:41:43.585Z,29.18
2022-08-30T14:44:14.282Z,28.88
2022-08-30T14:46:42.847Z,28.70
2022-08-30T14:49:11.247Z,28.55
2022-08-30T14:51:38.852Z,28.51
2022-08-30T14:54:07.349Z,28.49
2022-08-30T14:56:36.829Z,28.28
2022-08-30T14:59:04.018Z,28.23
2022-08-30T15:01:32.400Z,28.19
2022-08-30T15:04:06.165Z,28.06
2022-08-30T15:06:36.483Z,27.93
2022-08-30T15:09:05.789Z,27.73
2022-08-30T15:11:33.912Z,27.51
2022-08-30T15:14:01.902Z,27.35
2022-08-30T15:16:32.020Z,27.26
2022-08-30T15:18:59.871Z,27.34
2022-08-30T15:21:30.922Z,27.06
2022-08-30T15:24:01.251Z,26.85
2022-08-30T15:26:28.661Z,26.74
2022-08-30T15:28:56.795Z,26.67
2022-08-30T15:31:28.403Z,26.66
2022-08-30T15:33:56.657Z,26.58
2022-08-30T15:36:25.012Z,26.52
2022-08-30T15:38:55.988Z,26.46
2022-08-30T15:41:24.107Z,26.43
2022-08-30T15:43:52.948Z,26.41
2022-08-30T15:46:29.379Z,26.39
2022-08-30T15:49:00.815Z,26.31
2022-08-30T15:51:28.601Z,26.29
2022-08-30T15:54:03.892Z,26.25
2022-08-30T15:56:32.833Z,26.26
2022-08-30T15:59:00.244Z,26.26
2022-08-30T16:01:30.299Z,26.24
2022-08-30T16:03:59.976Z,26.20
2022-08-30T16:06:34.941Z,26.18
2022-08-30T16:09:03.816Z,26.08
2022-08-30T16:11:32.222Z,26.07
2022-08-30T16:13:59.594Z,25.99
2022-08-30T16:16:27.043Z,25.96
2022-08-30T16:18:55.258Z,25.90
2022-08-30T16:21:27.232Z,25.88
2022-08-30T16:23:57.364Z,25.87
2022-08-30T16:26:25.442Z,25.80
2022-08-30T16:28:53.329Z,25.84
2022-08-30T16:31:21.580Z,25.73
2022-08-30T16:33:52.525Z,25.78
2022-08-30T16:36:21.605Z,25.75
2022-08-30T16:38:49.839Z,25.71
2022-08-30T16:41:22.694Z,25.58
2022-08-30T16:44:17.950Z,25.63
2022-08-30T16:46:52.651Z,25.58
2022-08-30T16:49:22.760Z,25.36
2022-08-30T16:51:50.922Z,25.50
2022-08-30T16:54:23.284Z,25.40
2022-08-30T16:56:50.996Z,25.34
2022-08-30T16:59:18.936Z,25.49
2022-08-30T17:01:46.612Z,25.44
2022-08-30T17:04:19.232Z,25.51
2022-08-30T17:06:50.711Z,25.44
2022-08-30T17:09:19.296Z,25.37
2022-08-30T17:11:48.105Z,25.38
2022-08-30T17:14:22.907Z,25.35
2022-08-30T17:16:56.647Z,25.43
2022-08-30T17:19:26.825Z,25.36
2022-08-30T17:21:57.990Z,25.21
2022-08-30T17:24:27.953Z,25.11
2022-08-30T17:26:55.749Z,25.20
2022-08-30T17:29:22.970Z,25.17
2022-08-30T17:31:51.720Z,25.07
2022-08-30T17:34:21.913Z,24.97
2022-08-30T17:36:50.314Z,25.05
2022-08-30T17:39:18.331Z,25.06
2022-08-30T17:41:50.780Z,25.09
2022-08-30T17:44:25.519Z,24.89
2022-08-30T17:46:54.686Z,24.97
2022-08-30T17:49:22.933Z,24.81
2022-08-30T17:51:55.678Z,24.86
2022-08-30T17:54:25.942Z,24.81
2022-08-30T17:56:54.794Z,24.83
2022-08-30T17:59:24.895Z,24.85
2022-08-30T18:01:55.175Z,24.91
2022-08-30T18:04:24.915Z,24.82
2022-08-30T18:06:52.853Z,24.75
2022-08-30T18:09:23.368Z,24.69
2022-08-30T18:11:51.043Z,24.70
2022-08-30T18:14:18.831Z,24.56
2022-08-30T18:16:49.832Z,24.66
2022-08-30T18:19:24.874Z,24.61
2022-08-30T18:21:53.188Z,24.68
2022-08-30T18:24:22.141Z,24.77
2022-08-30T18:26:49.725Z,24.66
2022-08-30T18:29:25.990Z,24.74
2022-08-30T18:31:59.231Z,24.68
2022-08-30T18:34:28.722Z,24.71
2022-08-30T18:36:56.633Z,24.66
2022-08-30T18:39:24.033Z,24.64
2022-08-30T18:41:54.371Z,24.48
2022-08-30T18:44:29.644Z,24.54
2022-08-30T18:47:03.684Z,24.43
2022-08-30T18:49:32.299Z,24.35
2022-08-30T18:52:00.849Z,24.33
2022-08-30T18:54:29.976Z,24.42
2022-08-30T18:56:57.277Z,24.37
2022-08-30T18:59:35.706Z,24.41
2022-08-30T19:02:06.432Z,24.43
2022-08-30T19:04:35.531Z,24.37
2022-08-30T19:07:06.929Z,24.21
2022-08-30T19:09:35.170Z,24.25
2022-08-30T19:12:07.826Z,24.19
2022-08-30T19:14:39.745Z,24.27
2022-08-30T19:17:08.302Z,24.24
2022-08-30T19:19:48.845Z,24.19
2022-08-30T19:22:19.858Z,24.26
2022-08-30T19:24:50.234Z,24.15
2022-08-30T19:27:21.324Z,23.99
2022-08-30T19:29:53.549Z,24.06
2022-08-30T19:32:22.193Z,24.07
2022-08-30T19:34:50.153Z,24.16
2022-08-30T19:37:18.719Z,24.13
2022-08-30T19:39:46.657Z,23.99
2022-08-30T19:42:14.424Z,24.03
2022-08-30T19:44:42.075Z,24.13
2022-08-30T19:47:10.828Z,24.06
2022-08-30T19:49:38.217Z,24.13
2022-08-30T19:52:05.417Z,23.99
2022-08-30T19:54:34.763Z,24.07
2022-08-30T19:57:02.105Z,23.91
2022-08-30T19:59:29.550Z,23.76
2022-08-30T20:01:56.922Z,23.78
2022-08-30T20:04:25.789Z,23.84
2022-08-30T20:06:54.346Z,23.78
2022-08-30T20:09:25.292Z,23.72
2022-08-30T20:11:55.066Z,23.71
2022-08-30T20:14:24.056Z,23.61
2022-08-30T20:16:53.523Z,23.49
2022-08-30T20:19:21.855Z,23.48
2022-08-30T20:21:54.746Z,23.45
2022-08-30T20:24:31.864Z,23.47
2022-08-30T20:26:59.540Z,23.30
2022-08-30T20:29:26.820Z,23.37
2022-08-30T20:31:54.112Z,23.41
2022-08-30T20:34:27.375Z,23.41
2022-08-30T20:36:58.727Z,23.34
2022-08-30T20:39:26.001Z,23.21
2022-08-30T20:41:53.298Z,23.32
2022-08-30T20:44:20.750Z,23.21
2022-08-30T20:46:50.632Z,23.19
2022-08-30T20:49:19.784Z,23.17
2022-08-30T20:51:52.842Z,23.03
2022-08-30T20:54:22.590Z,23.08
2022-08-30T20:56:51.656Z,23.10
2022-08-30T20:59:18.968Z,22.91
2022-08-30T21:01:48.346Z,22.83
2022-08-30T21:04:17.749Z,22.69
2022-08-30T21:06:45.022Z,22.53
2022-08-30T21:09:12.182Z,22.69
2022-08-30T21:11:39.456Z,22.57
2022-08-30T21:14:12.307Z,22.70
2022-08-30T21:16:39.976Z,22.68
2022-08-30T21:19:07.320Z,22.65
2022-08-30T21:21:34.650Z,22.53
2022-08-30T21:24:10.055Z,22.51
2022-08-30T21:26:39.905Z,22.62
2022-08-30T21:29:07.954Z,22.69
2022-08-30T21:31:39.969Z,22.71
2022-08-30T21:34:07.647Z,22.67
2022-08-30T21:36:47.081Z,22.63
2022-08-30T21:39:26.765Z,22.61
2022-08-30T21:41:57.088Z,22.42
2022-08-30T21:44:27.061Z,22.47
2022-08-30T21:46:55.146Z,22.37
2022-08-30T21:49:25.182Z,22.46
2022-08-30T21:51:53.890Z,22.27
2022-08-30T21:54:22.666Z,22.40
2022-08-30T21:56:51.669Z,22.50
2022-08-30T21:59:20.211Z,22.27
2022-08-30T22:01:48.778Z,22.43
2022-08-30T22:04:17.078Z,22.30
2022-08-30T22:06:48.331Z,22.46
2022-08-30T22:09:17.391Z,22.51
2022-08-30T22:11:45.785Z,22.48
2022-08-30T22:14:15.301Z,22.52
2022-08-30T22:16:43.375Z,22.46
2022-08-30T22:19:11.721Z,22.26
2022-08-30T22:21:42.072Z,22.35
2022-08-30T22:24:10.135Z,22.45
2022-08-30T22:26:38.393Z,22.44
2022-08-30T22:29:06.993Z,22.43
2022-08-30T22:31:34.739Z,22.42
2022-08-30T22:34:02.850Z,22.35
2022-08-30T22:36:35.294Z,22.31
2022-08-30T22:39:05.103Z,22.23
2022-08-30T22:41:34.336Z,22.13
2022-08-30T22:44:02.504Z,21.89
2022-08-30T22:46:33.716Z,21.95
2022-08-30T22:49:02.487Z,22.02
2022-08-30T22:51:29.928Z,21.89
2022-08-30T22:53:57.641Z,21.85
2022-08-30T22:56:26.365Z,21.74
2022-08-30T22:58:54.796Z,21.77
2022-08-30T23:01:32.042Z,21.71
2022-08-30T23:05:25.923Z,21.69
2022-08-30T23:07:56.100Z,21.69
2022-08-30T23:10:28.241Z,21.69
2022-08-30T23:12:56.708Z,21.72
2022-08-30T23:15:27.934Z,21.53
2022-08-30T23:17:55.150Z,21.49
2022-08-30T23:20:23.678Z,21.46
2022-08-30T23:23:03.011Z,21.40
2022-08-30T23:25:52.069Z,21.36
2022-08-30T23:28:39.594Z,21.28
2022-08-30T23:31:34.892Z,21.27
2022-08-30T23:34:22.152Z,21.25
2022-08-30T23:37:07.936Z,21.17
2022-08-30T23:39:53.480Z,21.15
2022-08-30T23:42:38.981Z,21.02
2022-08-30T23:45:25.188Z,20.79
2022-08-30T23:48:10.811Z,20.86
2022-08-30T23:50:56.400Z,20.85
2022-08-30T23:53:43.672Z,20.71
2022-08-30T23:56:32.734Z,20.75
2022-08-30T23:59:18.322Z,20.69
